createdAt,value
2022-07-29T00:01:04.360Z,68.05
2022-07-29T00:03:32.196Z,68.59
2022-07-29T00:05:59.808Z,68.27
2022-07-29T00:08:28.571Z,66.82
2022-07-29T00:10:57.447Z,66.35
2022-07-29T00:13:32.659Z,66.71
2022-07-29T00:16:04.601Z,67.44
2022-07-29T00:18:34.024Z,68.19
2022-07-29T00:21:01.312Z,68.78
2022-07-29T00:23:31.643Z,68.75
2022-07-29T00:26:03.032Z,67.26
2022-07-29T00:28:30.295Z,66.68
2022-07-29T00:30:58.062Z,66.90
2022-07-29T00:33:25.641Z,67.33
2022-07-29T00:35:54.004Z,67.84
2022-07-29T00:38:23.063Z,68.43
2022-07-29T00:40:50.877Z,68.35
2022-07-29T00:43:18.249Z,66.86
2022-07-29T00:45:47.339Z,66.42
2022-07-29T00:48:15.068Z,66.68
2022-07-29T00:50:44.275Z,67.47
2022-07-29T00:53:12.017Z,68.15
2022-07-29T00:55:39.285Z,68.89
2022-07-29T00:58:06.412Z,68.77
2022-07-29T01:00:33.736Z,67.42
2022-07-29T01:03:01.837Z,66.92
2022-07-29T01:05:48.099Z,67.15
2022-07-29T01:08:20.797Z,67.92
2022-07-29T01:10:48.543Z,68.45
2022-07-29T01:13:16.122Z,69.28
2022-07-29T01:16:42.395Z,69.00
2022-07-29T01:19:33.467Z,67.52
2022-07-29T01:22:01.194Z,67.56
2022-07-29T01:25:01.708Z,67.86
2022-07-29T01:27:47.893Z,68.83
2022-07-29T01:30:15.759Z,69.66
2022-07-29T01:32:44.189Z,69.00
2022-07-29T01:35:26.584Z,67.53
2022-07-29T01:37:57.830Z,67.07
2022-07-29T01:40:28.526Z,67.16
2022-07-29T01:42:59.672Z,67.80
2022-07-29T01:45:50.718Z,68.49
2022-07-29T01:48:21.189Z,69.60
2022-07-29T01:51:03.159Z,68.71
2022-07-29T01:53:37.817Z,67.00
2022-07-29T01:56:06.472Z,67.00
2022-07-29T01:58:33.917Z,67.46
2022-07-29T02:01:01.592Z,67.99
2022-07-29T02:03:29.396Z,68.54
2022-07-29T02:05:56.577Z,69.25
2022-07-29T02:08:24.442Z,68.98
2022-07-29T02:10:51.683Z,67.46
2022-07-29T02:13:19.284Z,67.26
2022-07-29T02:15:47.952Z,67.62
2022-07-29T02:18:19.153Z,68.28
2022-07-29T02:20:49.109Z,69.21
2022-07-29T02:23:20.927Z,69.96
2022-07-29T02:25:49.718Z,69.59
2022-07-29T02:28:18.626Z,68.07
2022-07-29T02:30:46.859Z,67.70
2022-07-29T02:33:15.835Z,67.85
2022-07-29T02:35:44.525Z,68.29
2022-07-29T02:38:35.095Z,68.91
2022-07-29T02:41:04.561Z,69.49
2022-07-29T02:43:32.875Z,68.76
2022-07-29T02:46:00.157Z,67.28
2022-07-29T02:48:42.623Z,66.80
2022-07-29T02:51:13.437Z,67.16
2022-07-29T02:54:00.891Z,67.60
2022-07-29T02:56:28.913Z,68.26
2022-07-29T02:58:58.395Z,69.10
2022-07-29T03:01:30.811Z,68.94
2022-07-29T03:03:58.404Z,67.57
2022-07-29T03:06:31.063Z,67.24
2022-07-29T03:09:13.274Z,67.72
2022-07-29T03:11:50.351Z,68.44
2022-07-29T03:14:20.784Z,69.00
2022-07-29T03:16:48.927Z,69.66
2022-07-29T03:19:16.321Z,69.15
2022-07-29T03:21:43.696Z,67.73
2022-07-29T03:24:12.008Z,67.27
2022-07-29T03:26:39.776Z,67.37
2022-07-29T03:29:08.680Z,68.07
2022-07-29T03:31:40.668Z,68.63
2022-07-29T03:34:12.104Z,69.59
2022-07-29T03:36:41.473Z,69.09
2022-07-29T03:39:12.849Z,67.44
2022-07-29T03:41:40.154Z,66.80
2022-07-29T03:44:07.516Z,67.11
2022-07-29T03:46:35.061Z,67.76
2022-07-29T03:49:04.216Z,68.31
2022-07-29T03:51:33.978Z,69.18
2022-07-29T03:54:09.682Z,68.85
2022-07-29T03:56:40.775Z,67.53
2022-07-29T03:59:08.204Z,67.04
2022-07-29T04:01:36.457Z,67.45
2022-07-29T04:04:09.266Z,67.97
2022-07-29T04:06:43.161Z,68.68
2022-07-29T04:09:10.759Z,69.19
2022-07-29T04:12:02.197Z,69.63
2022-07-29T04:14:28.764Z,68.89
2022-07-29T04:17:00.909Z,67.53
2022-07-29T04:19:28.844Z,66.76
2022-07-29T04:21:57.184Z,67.21
2022-07-29T04:24:24.661Z,67.52
2022-07-29T04:26:53.280Z,68.30
2022-07-29T04:29:21.122Z,68.90
2022-07-29T04:31:48.484Z,68.75
2022-07-29T04:34:16.184Z,66.71
2022-07-29T04:36:43.967Z,66.19
2022-07-29T04:39:12.951Z,66.92
2022-07-29T04:41:42.361Z,66.81
2022-07-29T04:44:11.413Z,67.55
2022-07-29T04:46:41.975Z,67.89
2022-07-29T04:49:10.226Z,67.62
2022-07-29T04:51:37.717Z,66.26
2022-07-29T04:54:06.080Z,65.29
2022-07-29T04:56:33.545Z,65.68
2022-07-29T04:59:00.993Z,66.68
2022-07-29T05:01:28.810Z,66.09
2022-07-29T05:04:00.648Z,66.29
2022-07-29T05:06:28.885Z,67.71
2022-07-29T05:08:59.641Z,66.42
2022-07-29T05:11:30.519Z,63.93
2022-07-29T05:14:01.789Z,63.82
2022-07-29T05:16:29.130Z,63.34
2022-07-29T05:18:59.465Z,63.42
2022-07-29T05:21:27.033Z,62.82
2022-07-29T05:23:54.277Z,63.85
2022-07-29T05:26:21.488Z,62.33
2022-07-29T05:28:48.950Z,63.08
2022-07-29T05:31:16.380Z,62.81
2022-07-29T05:33:44.144Z,61.76
2022-07-29T05:36:11.416Z,61.30
2022-07-29T05:38:39.077Z,60.81
2022-07-29T05:41:06.819Z,61.11
2022-07-29T05:43:34.212Z,60.75
2022-07-29T05:46:01.492Z,60.49
2022-07-29T05:48:29.047Z,61.66
2022-07-29T05:50:56.914Z,59.74
2022-07-29T05:53:24.141Z,60.25
2022-07-29T05:55:51.793Z,60.49
2022-07-29T05:58:19.379Z,59.46
2022-07-29T06:01:00.309Z,58.17
2022-07-29T06:03:27.801Z,57.67
2022-07-29T06:05:55.162Z,58.70
2022-07-29T06:08:27.688Z,57.86
2022-07-29T06:10:55.472Z,56.20
2022-07-29T06:13:22.947Z,57.08
2022-07-29T06:15:54.415Z,57.07
2022-07-29T06:18:24.797Z,55.61
2022-07-29T06:20:55.002Z,56.34
2022-07-29T06:23:23.596Z,56.70
2022-07-29T06:25:51.395Z,55.60
2022-07-29T06:28:20.242Z,56.03
2022-07-29T06:30:47.629Z,55.24
2022-07-29T06:33:19.790Z,56.04
2022-07-29T06:35:53.110Z,55.54
2022-07-29T06:38:31.593Z,54.80
2022-07-29T06:41:11.168Z,57.01
2022-07-29T06:43:51.943Z,56.82
2022-07-29T06:46:21.446Z,56.03
2022-07-29T06:48:49.130Z,55.24
2022-07-29T06:51:22.201Z,54.29
2022-07-29T06:53:58.353Z,55.39
2022-07-29T06:56:31.740Z,54.26
2022-07-29T06:58:59.148Z,54.21
2022-07-29T07:01:30.637Z,55.14
2022-07-29T07:03:58.006Z,55.78
2022-07-29T07:06:25.372Z,54.14
2022-07-29T07:08:53.614Z,54.34
2022-07-29T07:11:20.898Z,51.48
2022-07-29T07:13:49.009Z,50.73
2022-07-29T07:16:16.943Z,51.37
2022-07-29T07:18:48.045Z,49.94
2022-07-29T07:21:19.012Z,52.13
2022-07-29T07:23:47.490Z,50.71
2022-07-29T07:26:15.649Z,50.50
2022-07-29T07:28:43.072Z,47.51
2022-07-29T07:31:11.159Z,46.25
2022-07-29T07:33:39.772Z,47.34
2022-07-29T07:36:07.295Z,47.67
2022-07-29T07:38:37.662Z,47.85
2022-07-29T07:41:05.036Z,46.57
2022-07-29T07:43:33.188Z,46.84
2022-07-29T07:46:01.882Z,46.74
2022-07-29T07:48:29.606Z,45.47
2022-07-29T07:50:57.386Z,44.12
2022-07-29T07:53:25.162Z,46.50
2022-07-29T07:56:09.778Z,46.72
2022-07-29T07:58:38.144Z,44.59
2022-07-29T08:01:05.431Z,45.33
2022-07-29T08:03:35.246Z,44.93
2022-07-29T08:06:04.885Z,46.77
2022-07-29T08:08:32.306Z,46.78
2022-07-29T08:11:02.217Z,47.08
2022-07-29T08:13:33.084Z,45.48
2022-07-29T08:16:12.614Z,44.75
2022-07-29T08:18:40.751Z,45.71
2022-07-29T08:21:09.366Z,47.79
2022-07-29T08:23:50.515Z,46.48
2022-07-29T08:26:24.657Z,46.00
2022-07-29T08:28:51.965Z,44.54
2022-07-29T08:31:19.359Z,45.42
2022-07-29T08:33:47.450Z,43.54
2022-07-29T08:36:14.792Z,43.56
2022-07-29T08:38:42.031Z,44.58
2022-07-29T08:41:09.485Z,42.89
2022-07-29T08:43:38.607Z,44.23
2022-07-29T08:46:06.143Z,40.84
2022-07-29T08:48:33.590Z,40.13
2022-07-29T08:51:02.497Z,41.52
2022-07-29T08:53:31.707Z,42.35
2022-07-29T08:56:00.576Z,41.24
2022-07-29T08:58:28.146Z,41.17
2022-07-29T09:00:56.374Z,38.91
2022-07-29T09:03:33.486Z,40.07
2022-07-29T09:06:00.765Z,42.20
2022-07-29T09:08:28.584Z,39.31
2022-07-29T09:10:59.513Z,39.74
2022-07-29T09:13:28.275Z,37.87
2022-07-29T09:15:57.277Z,37.51
2022-07-29T09:18:40.453Z,37.86
2022-07-29T09:21:28.977Z,36.26
2022-07-29T09:24:12.992Z,38.31
2022-07-29T09:26:50.064Z,35.24
2022-07-29T09:29:18.842Z,35.84
2022-07-29T09:31:53.844Z,35.49
2022-07-29T09:34:24.732Z,36.01
2022-07-29T09:36:53.281Z,37.20
2022-07-29T09:39:38.565Z,36.69
2022-07-29T09:42:07.272Z,35.93
2022-07-29T09:44:44.550Z,35.70
2022-07-29T09:47:12.764Z,34.75
2022-07-29T09:49:54.870Z,35.81
2022-07-29T09:52:22.955Z,33.57
2022-07-29T09:54:55.333Z,34.15
2022-07-29T09:57:28.650Z,34.26
2022-07-29T10:00:00.955Z,34.33
2022-07-29T10:02:34.484Z,34.98
2022-07-29T10:05:03.104Z,32.67
2022-07-29T10:07:50.578Z,32.92
2022-07-29T10:10:38.081Z,32.85
2022-07-29T10:13:16.634Z,33.15
2022-07-29T10:16:36.947Z,33.06
2022-07-29T10:19:34.183Z,32.61
2022-07-29T10:22:05.032Z,34.04
2022-07-29T10:24:32.348Z,32.15
2022-07-29T10:27:00.903Z,32.82
2022-07-29T10:29:29.931Z,32.94
2022-07-29T10:32:11.151Z,32.19
2022-07-29T10:34:57.826Z,33.02
2022-07-29T10:38:02.807Z,34.03
2022-07-29T10:41:19.657Z,32.76
2022-07-29T10:43:51.252Z,32.86
2022-07-29T10:46:19.917Z,34.23
2022-07-29T10:49:25.204Z,33.98
2022-07-29T10:51:57.650Z,32.79
2022-07-29T10:54:42.483Z,32.69
2022-07-29T10:57:13.880Z,32.95
2022-07-29T10:59:42.957Z,32.30
2022-07-29T11:02:43.983Z,32.67
2022-07-29T11:05:18.086Z,33.27
2022-07-29T11:08:19.907Z,32.30
2022-07-29T11:10:50.014Z,32.21
2022-07-29T11:13:47.337Z,33.27
2022-07-29T11:16:17.190Z,33.10
2022-07-29T11:19:24.740Z,32.99
2022-07-29T11:21:55.465Z,33.02
2022-07-29T11:24:30.247Z,33.35
2022-07-29T11:27:21.189Z,34.99
2022-07-29T11:29:56.386Z,33.06
2022-07-29T11:32:36.886Z,34.90
2022-07-29T11:35:17.713Z,34.57
2022-07-29T11:40:35.200Z,34.93
2022-07-29T11:43:07.355Z,34.72
2022-07-29T11:45:50.857Z,35.17
2022-07-29T11:48:31.683Z,35.63
2022-07-29T11:51:00.280Z,33.68
2022-07-29T11:53:29.131Z,33.76
2022-07-29T11:56:05.848Z,34.41
2022-07-29T11:58:34.458Z,37.84
2022-07-29T12:01:04.531Z,38.21
2022-07-29T12:03:36.906Z,37.15
2022-07-29T12:06:13.374Z,36.33
2022-07-29T12:08:43.807Z,36.42
2022-07-29T12:11:21.263Z,36.48
2022-07-29T12:13:54.408Z,36.58
2022-07-29T12:16:40.960Z,36.45
2022-07-29T12:19:08.967Z,37.15
2022-07-29T12:21:56.990Z,36.93
2022-07-29T12:24:27.381Z,37.42
2022-07-29T12:26:57.280Z,37.60
2022-07-29T12:29:35.075Z,37.48
2022-07-29T12:32:05.772Z,37.45
2022-07-29T12:34:33.362Z,37.97
2022-07-29T12:37:04.413Z,38.28
2022-07-29T12:39:33.526Z,39.21
2022-07-29T12:42:04.861Z,39.54
2022-07-29T12:44:48.717Z,39.99
2022-07-29T12:47:21.881Z,40.11
2022-07-29T12:50:22.129Z,40.89
2022-07-29T12:52:53.092Z,40.35
2022-07-29T12:55:42.853Z,40.12
2022-07-29T12:58:10.402Z,40.03
2022-07-29T13:00:38.826Z,40.15
2022-07-29T13:03:07.290Z,40.49
2022-07-29T13:05:48.543Z,40.63
2022-07-29T13:08:20.441Z,41.06
2022-07-29T13:10:51.270Z,41.20
2022-07-29T13:13:18.983Z,41.40
2022-07-29T13:15:50.044Z,42.12
2022-07-29T13:18:28.851Z,42.01
2022-07-29T13:20:57.144Z,42.57
2022-07-29T13:23:24.793Z,42.39
2022-07-29T13:25:53.489Z,42.27
2022-07-29T13:28:22.815Z,43.11
2022-07-29T13:30:53.721Z,43.30
2022-07-29T13:33:21.476Z,43.71
2022-07-29T13:35:48.894Z,42.52
2022-07-29T13:38:16.771Z,42.14
2022-07-29T13:40:44.811Z,40.96
2022-07-29T13:43:16.501Z,40.95
2022-07-29T13:45:43.927Z,41.29
2022-07-29T13:48:12.489Z,40.63
2022-07-29T13:50:39.865Z,40.49
2022-07-29T13:53:07.125Z,40.53
2022-07-29T13:55:34.411Z,40.76
2022-07-29T13:58:01.904Z,40.45
2022-07-29T14:00:32.496Z,40.50
2022-07-29T14:02:59.883Z,40.57
2022-07-29T14:05:27.399Z,40.15
2022-07-29T14:07:55.401Z,40.63
2022-07-29T14:10:22.875Z,40.95
2022-07-29T14:12:53.541Z,40.55
2022-07-29T14:15:21.440Z,40.31
2022-07-29T14:17:50.802Z,40.66
2022-07-29T14:20:18.972Z,40.63
2022-07-29T14:22:57.442Z,40.58
2022-07-29T14:25:25.523Z,40.10
2022-07-29T14:27:54.300Z,40.12
2022-07-29T14:30:26.717Z,39.93
2022-07-29T14:32:54.080Z,40.03
2022-07-29T14:35:26.769Z,39.56
2022-07-29T14:37:54.160Z,39.20
2022-07-29T14:40:22.578Z,39.62
2022-07-29T14:42:50.300Z,40.04
2022-07-29T14:45:25.852Z,40.03
2022-07-29T14:47:53.414Z,39.36
2022-07-29T14:50:31.282Z,39.79
2022-07-29T14:53:01.477Z,39.58
2022-07-29T14:55:28.803Z,39.50
2022-07-29T14:58:05.810Z,39.69
2022-07-29T15:00:37.887Z,39.72
2022-07-29T15:03:11.699Z,39.40
2022-07-29T15:05:39.780Z,39.58
2022-07-29T15:08:10.822Z,39.48
2022-07-29T15:10:40.259Z,39.65
2022-07-29T15:13:08.608Z,39.68
2022-07-29T15:15:38.005Z,39.33
2022-07-29T15:18:05.916Z,39.21
2022-07-29T15:20:34.045Z,39.14
2022-07-29T15:23:02.757Z,38.28
2022-07-29T15:25:37.266Z,38.25
2022-07-29T15:28:10.119Z,38.40
2022-07-29T15:30:41.925Z,38.20
2022-07-29T15:33:12.938Z,37.59
2022-07-29T15:35:40.974Z,37.35
2022-07-29T15:38:09.016Z,37.04
2022-07-29T15:40:38.994Z,36.94
2022-07-29T15:43:09.355Z,36.74
2022-07-29T15:45:41.070Z,37.10
2022-07-29T15:48:09.427Z,38.21
2022-07-29T15:50:37.443Z,40.51
2022-07-29T15:53:07.260Z,42.05
2022-07-29T15:55:34.587Z,42.16
2022-07-29T15:58:05.140Z,42.64
2022-07-29T16:00:32.557Z,43.48
2022-07-29T16:03:03.532Z,44.33
2022-07-29T16:05:36.216Z,45.66
2022-07-29T16:08:05.178Z,45.42
2022-07-29T16:10:32.407Z,46.31
2022-07-29T16:13:04.541Z,46.74
2022-07-29T16:15:31.986Z,47.16
2022-07-29T16:18:14.081Z,47.79
2022-07-29T16:20:42.140Z,47.86
2022-07-29T16:23:12.248Z,48.35
2022-07-29T16:25:59.069Z,48.80
2022-07-29T16:28:28.344Z,49.24
2022-07-29T16:30:58.677Z,48.95
2022-07-29T16:33:27.213Z,49.38
2022-07-29T16:36:03.666Z,49.85
2022-07-29T16:38:32.532Z,50.61
2022-07-29T16:41:06.338Z,50.54
2022-07-29T16:43:37.127Z,51.19
2022-07-29T16:46:39.016Z,51.24
2022-07-29T16:49:32.065Z,52.15
2022-07-29T16:52:08.353Z,52.36
2022-07-29T16:54:52.722Z,52.34
2022-07-29T16:57:19.937Z,52.48
2022-07-29T16:59:47.496Z,52.55
2022-07-29T17:02:20.200Z,52.78
2022-07-29T17:04:47.822Z,52.56
2022-07-29T17:07:16.261Z,52.65
2022-07-29T17:09:44.420Z,52.65
2022-07-29T17:12:11.957Z,52.21
2022-07-29T17:14:40.268Z,53.01
2022-07-29T17:17:13.797Z,53.04
2022-07-29T17:19:44.794Z,52.94
2022-07-29T17:22:18.703Z,52.82
2022-07-29T17:24:48.057Z,53.27
2022-07-29T17:27:16.735Z,52.97
2022-07-29T17:29:44.080Z,53.72
2022-07-29T17:32:11.552Z,53.75
2022-07-29T17:34:39.508Z,53.76
2022-07-29T17:37:08.155Z,53.33
2022-07-29T17:39:36.282Z,53.75
2022-07-29T17:42:04.229Z,54.43
2022-07-29T17:44:31.534Z,54.49
2022-07-29T17:47:00.984Z,53.84
2022-07-29T17:49:32.208Z,54.82
2022-07-29T17:52:01.160Z,55.09
2022-07-29T17:54:28.980Z,55.71
2022-07-29T17:56:57.230Z,55.99
2022-07-29T17:59:24.699Z,56.28
2022-07-29T18:01:53.301Z,56.51
2022-07-29T18:04:23.562Z,57.38
2022-07-29T18:07:01.699Z,57.04
2022-07-29T18:09:35.192Z,57.06
2022-07-29T18:12:23.564Z,57.34
2022-07-29T18:14:52.198Z,57.79
2022-07-29T18:17:19.648Z,57.74
2022-07-29T18:19:48.300Z,58.53
2022-07-29T18:22:17.678Z,58.76
2022-07-29T18:24:45.793Z,58.62
2022-07-29T18:27:14.164Z,59.42
2022-07-29T18:29:41.687Z,59.83
2022-07-29T18:32:09.764Z,59.28
2022-07-29T18:34:38.743Z,59.70
2022-07-29T18:37:07.995Z,59.79
2022-07-29T18:39:36.522Z,60.52
2022-07-29T18:42:06.461Z,59.38
2022-07-29T18:44:34.122Z,57.62
2022-07-29T18:47:11.362Z,56.80
2022-07-29T18:49:39.555Z,57.05
2022-07-29T18:52:13.064Z,57.28
2022-07-29T18:54:40.594Z,57.62
2022-07-29T18:57:54.863Z,58.32
2022-07-29T18:59:58.253Z,59.14
2022-07-29T19:02:25.541Z,59.05
2022-07-29T19:04:52.867Z,59.62
2022-07-29T19:07:39.931Z,60.52
2022-07-29T19:10:08.595Z,60.88
2022-07-29T19:12:39.263Z,61.12
2022-07-29T19:15:08.146Z,61.82
2022-07-29T19:17:39.361Z,61.08
2022-07-29T19:20:07.737Z,59.91
2022-07-29T19:22:37.308Z,58.94
2022-07-29T19:25:05.517Z,59.65
2022-07-29T19:27:33.254Z,59.78
2022-07-29T19:30:03.389Z,60.70
2022-07-29T19:32:32.980Z,61.13
2022-07-29T19:35:19.680Z,61.84
2022-07-29T19:37:46.969Z,62.13
2022-07-29T19:40:16.231Z,62.50
2022-07-29T19:42:44.124Z,62.91
2022-07-29T19:45:11.888Z,62.54
2022-07-29T19:47:40.559Z,61.11
2022-07-29T19:50:09.179Z,60.69
2022-07-29T19:52:36.590Z,60.66
2022-07-29T19:55:07.538Z,61.22
2022-07-29T19:57:41.013Z,61.84
2022-07-29T20:00:11.435Z,62.48
2022-07-29T20:02:41.666Z,63.18
2022-07-29T20:05:09.679Z,63.66
2022-07-29T20:07:41.978Z,64.32
2022-07-29T20:10:10.104Z,63.79
2022-07-29T20:12:42.702Z,62.22
2022-07-29T20:15:16.391Z,61.77
2022-07-29T20:17:45.695Z,62.15
2022-07-29T20:20:13.871Z,62.60
2022-07-29T20:22:41.046Z,63.18
2022-07-29T20:25:10.021Z,63.88
2022-07-29T20:27:39.478Z,64.43
2022-07-29T20:30:08.330Z,65.11
2022-07-29T20:32:35.938Z,64.56
2022-07-29T20:35:07.104Z,62.84
2022-07-29T20:37:52.118Z,62.38
2022-07-29T20:40:25.558Z,62.72
2022-07-29T20:42:53.932Z,63.14
2022-07-29T20:45:22.847Z,63.64
2022-07-29T20:47:51.859Z,64.12
2022-07-29T20:50:23.842Z,64.78
2022-07-29T20:52:53.135Z,65.44
2022-07-29T20:55:21.064Z,66.10
2022-07-29T20:57:48.738Z,65.80
2022-07-29T21:00:16.257Z,64.00
2022-07-29T21:02:44.262Z,63.23
2022-07-29T21:05:11.784Z,63.57
2022-07-29T21:07:39.046Z,64.01
2022-07-29T21:10:06.831Z,64.58
2022-07-29T21:12:42.359Z,65.15
2022-07-29T21:15:16.405Z,65.87
2022-07-29T21:17:47.341Z,65.55
2022-07-29T21:20:15.751Z,64.08
2022-07-29T21:22:43.117Z,63.62
2022-07-29T21:25:11.080Z,63.64
2022-07-29T21:28:02.093Z,64.04
2022-07-29T21:30:31.335Z,64.66
2022-07-29T21:32:59.703Z,65.18
2022-07-29T21:35:35.590Z,65.59
2022-07-29T21:38:17.128Z,66.40
2022-07-29T21:40:47.863Z,65.60
2022-07-29T21:43:15.428Z,63.98
2022-07-29T21:45:43.850Z,63.45
2022-07-29T21:48:11.921Z,63.68
2022-07-29T21:50:39.215Z,64.20
2022-07-29T21:53:15.851Z,64.97
2022-07-29T21:55:43.757Z,65.55
2022-07-29T21:58:15.599Z,66.22
2022-07-29T22:00:43.114Z,66.01
2022-07-29T22:03:10.619Z,64.68
2022-07-29T22:05:38.026Z,64.23
2022-07-29T22:08:05.630Z,64.41
2022-07-29T22:10:36.783Z,64.92
2022-07-29T22:13:04.073Z,65.33
2022-07-29T22:15:36.388Z,65.82
2022-07-29T22:18:10.538Z,66.70
2022-07-29T22:20:38.897Z,66.17
2022-07-29T22:23:10.102Z,64.43
2022-07-29T22:25:40.685Z,63.90
2022-07-29T22:28:08.668Z,64.25
2022-07-29T22:30:36.035Z,64.84
2022-07-29T22:33:04.259Z,65.39
2022-07-29T22:35:32.963Z,65.98
2022-07-29T22:38:00.441Z,66.51
2022-07-29T22:40:30.591Z,66.40
2022-07-29T22:42:58.188Z,65.03
2022-07-29T22:45:28.763Z,64.73
2022-07-29T22:47:58.965Z,65.10
2022-07-29T22:50:26.769Z,65.69
2022-07-29T22:52:53.843Z,66.06
2022-07-29T22:55:21.343Z,66.34
2022-07-29T22:57:48.844Z,66.91
2022-07-29T23:00:16.353Z,66.55
2022-07-29T23:02:43.568Z,65.17
2022-07-29T23:05:18.504Z,64.65
2022-07-29T23:07:48.984Z,65.03
2022-07-29T23:10:20.784Z,65.50
2022-07-29T23:12:50.464Z,66.18
2022-07-29T23:15:20.330Z,66.67
2022-07-29T23:17:48.481Z,67.39
2022-07-29T23:20:15.817Z,66.71
2022-07-29T23:22:44.320Z,65.06
2022-07-29T23:25:11.607Z,64.49
2022-07-29T23:27:39.078Z,64.70
2022-07-29T23:30:07.164Z,65.14
2022-07-29T23:32:35.316Z,65.67
2022-07-29T23:35:07.032Z,66.33
2022-07-29T23:37:35.702Z,67.05
2022-07-29T23:40:03.630Z,66.96
2022-07-29T23:42:31.065Z,65.58
2022-07-29T23:44:58.915Z,65.11
2022-07-29T23:47:30.192Z,65.64
2022-07-29T23:49:57.669Z,66.05
2022-07-29T23:52:27.730Z,66.29
2022-07-29T23:55:36.407Z,66.81
2022-07-29T23:57:46.095Z,67.56
